Terminal Aerodrome Forecast
Issued by NWS Wakefield, VA

Home | Current Version | Previous Version | Text Only | Print | Product List | Glossary On
Versions: 1 2 3 4 5 6 7 8 9 10 11 12 13 14 15 16
000
FTUS41 KAKQ 230540
TAFORF
TAF
KORF 230540Z 2306/2406 21008KT P6SM VCSH BKN100
     FM231100 24011G18KT P6SM BKN100
     FM231500 26008KT P6SM BKN090
     FM231800 01008KT P6SM VCSH BKN050
     FM232300 04007KT P6SM SCT050=

USA.gov is the U.S. government's official web portal to all federal, state and local government web resources and services.